Time;durP1;ratioP1;P1;durP2;ratioP2;P2;SDS_P1;SDS_P2;PMS_P1;PMS_P2;Temp;Humidity;BMP_temperature;BMP_pressure;BME280_temperature;BME280_humidity;BME280_pressure;Samples;Min_cycle;Max_cycle;Signal;HPM_P1;HPM_P2
2023/08/03 00:00:05;;;;;;;7.40;2.50;;;;;;;;;;5112332;28;20035;-70
2023/08/03 00:02:35;;;;;;;8.13;2.35;;;;;;;;;;5112823;28;20062;-71
2023/08/03 00:05:02;;;;;;;6.70;1.65;;;;;;;;;;5112172;28;20472;-71
2023/08/03 00:07:28;;;;;;;7.38;1.85;;;;;;;;;;5112941;28;20033;-71
2023/08/03 00:09:55;;;;;;;9.70;2.33;;;;;;;;;;5111945;28;20375;-70
2023/08/03 00:12:22;;;;;;;7.90;2.25;;;;;;;;;;5112710;28;20372;-72
2023/08/03 00:14:49;;;;;;;5.78;1.67;;;;;;;;;;5111867;28;20457;-71
2023/08/03 00:17:15;;;;;;;8.63;2.08;;;;;;;;;;5112734;28;20024;-71
2023/08/03 00:19:41;;;;;;;8.70;1.85;;;;;;;;;;5111849;28;20440;-71
2023/08/03 00:22:08;;;;;;;10.65;2.38;;;;;;;;;;5111728;28;20028;-71
2023/08/03 00:24:34;;;;;;;7.75;2.13;;;;;;;;;;5111861;28;20396;-70
2023/08/03 00:27:00;;;;;;;10.43;1.63;;;;;;;;;;5118661;28;20344;-70
2023/08/03 00:29:26;;;;;;;9.93;2.20;;;;;;;;;;5133075;28;20106;-71
2023/08/03 00:31:52;;;;;;;9.40;2.67;;;;;;;;;;5132343;28;20058;-69
2023/08/03 00:34:18;;;;;;;9.80;2.15;;;;;;;;;;5133245;28;20054;-70
2023/08/03 00:36:44;;;;;;;7.22;1.95;;;;;;;;;;5132858;28;20020;-69
2023/08/03 00:39:10;;;;;;;7.35;2.45;;;;;;;;;;5132437;28;20409;-70
2023/08/03 00:41:36;;;;;;;11.63;2.78;;;;;;;;;;5140640;28;20035;-71
2023/08/03 00:44:02;;;;;;;7.45;2.50;;;;;;;;;;5143382;28;20454;-70
2023/08/03 00:46:28;;;;;;;7.35;1.77;;;;;;;;;;5137851;28;20030;-70
2023/08/03 00:48:54;;;;;;;6.03;1.90;;;;;;;;;;5144586;28;20054;-71
2023/08/03 00:51:20;;;;;;;8.25;2.33;;;;;;;;;;5142063;28;20024;-70
2023/08/03 00:53:46;;;;;;;8.50;1.98;;;;;;;;;;5149497;28;20031;-70
2023/08/03 00:56:16;;;;;;;11.10;1.83;;;;;;;;;;5116139;28;20015;-70
2023/08/03 00:58:42;;;;;;;10.80;2.50;;;;;;;;;;5132968;28;20104;-71
2023/08/03 01:01:08;;;;;;;7.20;1.95;;;;;;;;;;5132016;28;20468;-70
2023/08/03 01:03:34;;;;;;;13.27;2.42;;;;;;;;;;5132769;28;20023;-70
2023/08/03 01:06:00;;;;;;;10.75;2.10;;;;;;;;;;5132036;27;20516;-70
2023/08/03 01:08:26;;;;;;;16.25;2.60;;;;;;;;;;5136423;27;20023;-71
2023/08/03 01:10:52;;;;;;;8.77;1.77;;;;;;;;;;5135983;27;20034;-70
2023/08/03 01:13:19;;;;;;;12.43;2.50;;;;;;;;;;5136832;27;20019;-71
2023/08/03 01:15:45;;;;;;;10.80;2.00;;;;;;;;;;5136556;27;20051;-71
2023/08/03 01:18:11;;;;;;;7.60;2.45;;;;;;;;;;5135918;27;20152;-71
2023/08/03 01:20:38;;;;;;;12.25;2.17;;;;;;;;;;5136471;27;20020;-71
2023/08/03 01:23:05;;;;;;;11.68;2.42;;;;;;;;;;5135793;27;20016;-71
2023/08/03 01:25:33;;;;;;;7.40;2.08;;;;;;;;;;5136158;27;20463;-71
2023/08/03 01:28:00;;;;;;;17.98;3.78;;;;;;;;;;5120128;27;20024;-70
2023/08/03 01:30:26;;;;;;;7.10;1.80;;;;;;;;;;5115797;28;20031;-71
2023/08/03 01:32:52;;;;;;;10.48;2.53;;;;;;;;;;5114893;28;20031;-70
2023/08/03 01:35:18;;;;;;;7.38;1.88;;;;;;;;;;5115547;28;20032;-71
2023/08/03 01:37:44;;;;;;;9.63;2.20;;;;;;;;;;5115974;28;20031;-72
2023/08/03 01:40:11;;;;;;;11.60;1.90;;;;;;;;;;5114848;28;20584;-71
2023/08/03 01:42:37;;;;;;;10.48;2.63;;;;;;;;;;5115155;28;20510;-71
2023/08/03 01:45:04;;;;;;;12.48;2.40;;;;;;;;;;5114701;28;20044;-71
2023/08/03 01:47:30;;;;;;;7.55;2.13;;;;;;;;;;5115332;28;20027;-72
2023/08/03 01:49:56;;;;;;;7.18;1.98;;;;;;;;;;5114530;28;20020;-70
2023/08/03 01:52:22;;;;;;;5.97;1.73;;;;;;;;;;5115344;28;20024;-70
2023/08/03 01:54:48;;;;;;;6.68;2.05;;;;;;;;;;5115215;28;20023;-71
2023/08/03 01:57:23;;;;;;;9.32;2.13;;;;;;;;;;5114442;28;20022;-71
2023/08/03 01:59:49;;;;;;;6.10;1.77;;;;;;;;;;5114943;28;20465;-71
2023/08/03 02:02:15;;;;;;;8.45;1.88;;;;;;;;;;5114885;28;20035;-71
2023/08/03 02:04:41;;;;;;;6.70;1.95;;;;;;;;;;5115230;28;20024;-71
2023/08/03 02:07:17;;;;;;;8.98;2.38;;;;;;;;;;5114529;28;20016;-71
2023/08/03 02:09:43;;;;;;;10.93;2.13;;;;;;;;;;5114864;28;20057;-71
2023/08/03 02:12:09;;;;;;;4.30;1.48;;;;;;;;;;5114078;28;20500;-70
2023/08/03 02:14:35;;;;;;;6.40;1.70;;;;;;;;;;5115042;28;20020;-71
2023/08/03 02:17:02;;;;;;;8.57;1.60;;;;;;;;;;5114583;28;20089;-71
2023/08/03 02:19:28;;;;;;;7.70;1.77;;;;;;;;;;5114391;28;20073;-71
2023/08/03 02:21:54;;;;;;;8.02;1.63;;;;;;;;;;5114704;28;20032;-71
2023/08/03 02:24:20;;;;;;;8.43;1.70;;;;;;;;;;5114777;28;20411;-70
2023/08/03 02:26:46;;;;;;;8.15;1.75;;;;;;;;;;5119648;27;20015;-71
2023/08/03 02:29:11;;;;;;;7.20;1.70;;;;;;;;;;5134558;27;20027;-71
2023/08/03 02:31:37;;;;;;;11.10;1.95;;;;;;;;;;5135161;27;20099;-71
2023/08/03 02:34:04;;;;;;;10.40;1.80;;;;;;;;;;5134277;27;20030;-70
2023/08/03 02:36:30;;;;;;;15.60;2.03;;;;;;;;;;5135327;27;20386;-71
2023/08/03 02:38:56;;;;;;;10.60;2.30;;;;;;;;;;5133983;27;20464;-70
2023/08/03 02:41:22;;;;;;;11.05;2.08;;;;;;;;;;5134951;27;20601;-71
2023/08/03 02:43:48;;;;;;;8.45;1.77;;;;;;;;;;5135036;27;20054;-71
2023/08/03 02:46:14;;;;;;;7.57;1.67;;;;;;;;;;5137551;27;20106;-70
2023/08/03 02:48:40;;;;;;;12.85;2.83;;;;;;;;;;5138975;27;20059;-71
2023/08/03 02:51:06;;;;;;;6.30;1.63;;;;;;;;;;5136248;27;20031;-71
2023/08/03 02:53:32;;;;;;;6.55;1.35;;;;;;;;;;5135892;27;20062;-70
2023/08/03 02:55:58;;;;;;;9.27;2.03;;;;;;;;;;5133859;27;20459;-70
2023/08/03 02:58:24;;;;;;;8.00;1.98;;;;;;;;;;5134510;27;20019;-71
2023/08/03 03:00:49;;;;;;;10.70;1.63;;;;;;;;;;5134232;27;20023;-70
2023/08/03 03:03:16;;;;;;;10.77;2.28;;;;;;;;;;5133364;27;20012;-71
2023/08/03 03:05:41;;;;;;;10.20;1.73;;;;;;;;;;5116301;27;20024;-70
2023/08/03 03:08:07;;;;;;;10.23;2.75;;;;;;;;;;5133544;27;20030;-71
2023/08/03 03:10:33;;;;;;;8.68;1.75;;;;;;;;;;5134343;27;20019;-71
2023/08/03 03:12:59;;;;;;;10.43;1.95;;;;;;;;;;5133231;27;20066;-71
2023/08/03 03:15:25;;;;;;;8.75;2.03;;;;;;;;;;5134478;27;20036;-71
2023/08/03 03:17:51;;;;;;;8.55;1.90;;;;;;;;;;5133950;27;20027;-70
2023/08/03 03:20:17;;;;;;;8.65;1.80;;;;;;;;;;5133312;27;20027;-71
2023/08/03 03:22:43;;;;;;;13.15;2.13;;;;;;;;;;5134069;27;20378;-72
2023/08/03 03:25:09;;;;;;;10.38;1.90;;;;;;;;;;5132528;27;20039;-71
2023/08/03 03:27:35;;;;;;;8.73;2.42;;;;;;;;;;5121936;27;20341;-71
2023/08/03 03:30:01;;;;;;;14.88;2.85;;;;;;;;;;5112532;28;20026;-71
2023/08/03 03:32:27;;;;;;;6.55;1.70;;;;;;;;;;5113394;28;20376;-70
2023/08/03 03:34:53;;;;;;;10.77;1.70;;;;;;;;;;5113005;28;20024;-72
2023/08/03 03:37:19;;;;;;;7.97;2.33;;;;;;;;;;5112726;28;20035;-70
2023/08/03 03:39:45;;;;;;;9.93;2.60;;;;;;;;;;5112933;28;20020;-71
2023/08/03 03:42:11;;;;;;;11.88;2.47;;;;;;;;;;5112351;28;20069;-71
2023/08/03 03:44:37;;;;;;;8.68;1.90;;;;;;;;;;5094999;28;20115;-70
2023/08/03 03:47:03;;;;;;;11.40;1.80;;;;;;;;;;5112386;28;20016;-71
2023/08/03 03:49:29;;;;;;;12.98;2.30;;;;;;;;;;5113052;28;20023;-71
2023/08/03 03:51:55;;;;;;;7.47;1.45;;;;;;;;;;5112743;28;20106;-70
2023/08/03 03:54:21;;;;;;;16.77;2.63;;;;;;;;;;5112321;28;20216;-70
2023/08/03 03:56:47;;;;;;;8.90;1.80;;;;;;;;;;5113067;28;20022;-70
2023/08/03 03:59:13;;;;;;;10.27;2.25;;;;;;;;;;5111899;28;20503;-69
2023/08/03 04:01:39;;;;;;;10.35;2.00;;;;;;;;;;5112516;28;20028;-71
2023/08/03 04:04:05;;;;;;;6.45;1.48;;;;;;;;;;5111984;28;20019;-70
2023/08/03 04:06:31;;;;;;;8.60;2.17;;;;;;;;;;5112963;28;20028;-70
2023/08/03 04:08:57;;;;;;;7.75;1.70;;;;;;;;;;5112426;28;20414;-70
2023/08/03 04:11:23;;;;;;;9.82;1.77;;;;;;;;;;5112345;28;20475;-71
2023/08/03 04:13:49;;;;;;;9.60;2.17;;;;;;;;;;5112729;28;20034;-71
2023/08/03 04:16:15;;;;;;;12.07;1.90;;;;;;;;;;5111937;28;20060;-70
2023/08/03 04:18:41;;;;;;;11.02;2.30;;;;;;;;;;5112628;28;20107;-71
2023/08/03 04:21:07;;;;;;;8.40;2.33;;;;;;;;;;5112049;28;20379;-70
2023/08/03 04:23:33;;;;;;;7.60;1.38;;;;;;;;;;5112625;28;20031;-71
2023/08/03 04:25:59;;;;;;;6.57;1.77;;;;;;;;;;5111667;28;20115;-71
2023/08/03 04:28:25;;;;;;;10.75;1.60;;;;;;;;;;5131200;28;20015;-70
2023/08/03 04:30:51;;;;;;;5.85;1.40;;;;;;;;;;5133366;28;20026;-70
2023/08/03 04:33:17;;;;;;;7.47;1.30;;;;;;;;;;5132302;28;20028;-70
2023/08/03 04:35:43;;;;;;;3.78;1.05;;;;;;;;;;5133124;28;20015;-71
2023/08/03 04:38:09;;;;;;;3.42;1.00;;;;;;;;;;5131937;27;20114;-69
2023/08/03 04:40:35;;;;;;;5.90;1.15;;;;;;;;;;5132985;27;20537;-71
2023/08/03 04:43:02;;;;;;;4.50;1.00;;;;;;;;;;5135683;27;20118;-71
2023/08/03 04:45:28;;;;;;;8.18;1.80;;;;;;;;;;5137416;27;20038;-71
2023/08/03 04:47:54;;;;;;;4.65;1.30;;;;;;;;;;5137148;27;20023;-71
2023/08/03 04:50:22;;;;;;;7.78;1.10;;;;;;;;;;5136518;27;20020;-70
2023/08/03 04:52:48;;;;;;;8.35;1.23;;;;;;;;;;5137041;27;20027;-71
2023/08/03 04:55:14;;;;;;;4.55;1.20;;;;;;;;;;5136579;27;20023;-71
2023/08/03 04:57:40;;;;;;;6.93;1.65;;;;;;;;;;5137060;27;20045;-71
2023/08/03 05:00:06;;;;;;;4.20;1.58;;;;;;;;;;5136586;27;20452;-70
2023/08/03 05:02:32;;;;;;;7.38;1.52;;;;;;;;;;5118739;27;20031;-71
2023/08/03 05:04:58;;;;;;;7.32;1.45;;;;;;;;;;5137534;27;20023;-72
2023/08/03 05:07:24;;;;;;;6.57;1.30;;;;;;;;;;5136426;27;20494;-71
2023/08/03 05:09:50;;;;;;;3.13;1.02;;;;;;;;;;5136972;27;20030;-71
2023/08/03 05:12:16;;;;;;;3.47;1.40;;;;;;;;;;5135903;27;20023;-71
2023/08/03 05:14:42;;;;;;;4.43;0.90;;;;;;;;;;5136760;27;20038;-71
2023/08/03 05:17:08;;;;;;;2.40;0.90;;;;;;;;;;5135843;27;20034;-70
2023/08/03 05:19:34;;;;;;;2.88;1.10;;;;;;;;;;5136636;27;20026;-70
2023/08/03 05:22:00;;;;;;;4.90;0.98;;;;;;;;;;5136294;27;20023;-71
2023/08/03 05:24:26;;;;;;;5.82;1.65;;;;;;;;;;5134622;27;20061;-71
2023/08/03 05:26:52;;;;;;;7.18;1.60;;;;;;;;;;5130866;27;20020;-71
2023/08/03 05:29:18;;;;;;;4.93;1.17;;;;;;;;;;5115104;28;20139;-71
2023/08/03 05:31:48;;;;;;;5.28;0.80;;;;;;;;;;5115750;28;20027;-71
2023/08/03 05:34:14;;;;;;;7.03;1.40;;;;;;;;;;5114842;28;20106;-71
2023/08/03 05:36:40;;;;;;;4.43;1.08;;;;;;;;;;5115523;28;20035;-71
2023/08/03 05:39:06;;;;;;;5.13;1.30;;;;;;;;;;5114782;28;20023;-70
2023/08/03 05:41:32;;;;;;;5.20;1.27;;;;;;;;;;5115200;28;20040;-70
2023/08/03 05:43:58;;;;;;;5.22;1.05;;;;;;;;;;5115477;28;20051;-71
2023/08/03 05:46:27;;;;;;;6.63;1.23;;;;;;;;;;5114499;28;20019;-70
2023/08/03 05:48:53;;;;;;;4.97;1.00;;;;;;;;;;5115320;28;20065;-71
2023/08/03 05:51:25;;;;;;;2.78;1.00;;;;;;;;;;5114439;28;20089;-71
2023/08/03 05:53:51;;;;;;;6.15;1.80;;;;;;;;;;5114975;28;20058;-71
2023/08/03 05:56:18;;;;;;;2.85;0.90;;;;;;;;;;5114181;28;20023;-70
2023/08/03 05:58:44;;;;;;;3.25;0.85;;;;;;;;;;5114914;28;20049;-71
2023/08/03 06:01:12;;;;;;;4.05;1.48;;;;;;;;;;5114162;28;20059;-71
2023/08/03 06:03:41;;;;;;;6.20;1.10;;;;;;;;;;5114971;28;20024;-71
2023/08/03 06:06:10;;;;;;;2.47;1.00;;;;;;;;;;5114230;28;20107;-71
2023/08/03 06:08:36;;;;;;;3.38;1.00;;;;;;;;;;5114992;28;20027;-71
2023/08/03 06:11:04;;;;;;;1.80;0.70;;;;;;;;;;5114903;28;20107;-71
2023/08/03 06:13:33;;;;;;;3.70;1.02;;;;;;;;;;5114351;28;20028;-71
2023/08/03 06:16:03;;;;;;;3.58;0.77;;;;;;;;;;5115054;28;20097;-71
2023/08/03 06:18:30;;;;;;;3.15;1.00;;;;;;;;;;5113331;28;20024;-71
2023/08/03 06:20:56;;;;;;;5.25;1.23;;;;;;;;;;5114579;28;20031;-72
2023/08/03 06:23:28;;;;;;;3.47;0.93;;;;;;;;;;5113522;28;20019;-71
2023/08/03 06:25:55;;;;;;;5.18;1.10;;;;;;;;;;5113966;28;20055;-71
2023/08/03 06:28:22;;;;;;;7.05;1.38;;;;;;;;;;5131899;27;20015;-70
2023/08/03 06:30:49;;;;;;;8.48;1.58;;;;;;;;;;5134896;27;20016;-71
2023/08/03 06:33:16;;;;;;;2.92;1.00;;;;;;;;;;5134416;27;20134;-69
2023/08/03 06:35:43;;;;;;;9.07;1.27;;;;;;;;;;5134849;27;20427;-70
2023/08/03 06:38:12;;;;;;;3.28;0.73;;;;;;;;;;5134218;27;20467;-71
2023/08/03 06:40:40;;;;;;;6.07;1.25;;;;;;;;;;5135159;27;20069;-71
2023/08/03 06:43:06;;;;;;;5.90;1.63;;;;;;;;;;5134817;27;20387;-72
2023/08/03 06:45:32;;;;;;;6.43;1.27;;;;;;;;;;5134476;27;20137;-71
2023/08/03 06:47:59;;;;;;;2.83;0.80;;;;;;;;;;5134842;27;20081;-72
2023/08/03 06:50:25;;;;;;;3.67;1.00;;;;;;;;;;5133775;27;20102;-71
2023/08/03 06:52:52;;;;;;;5.05;1.70;;;;;;;;;;5134248;27;20273;-71
2023/08/03 06:55:18;;;;;;;4.55;1.13;;;;;;;;;;5133932;27;20030;-71
2023/08/03 06:57:46;;;;;;;2.38;0.90;;;;;;;;;;5134510;27;20027;-71
2023/08/03 07:00:12;;;;;;;4.30;1.02;;;;;;;;;;5133578;27;20031;-71
2023/08/03 07:02:38;;;;;;;4.38;1.38;;;;;;;;;;5134361;27;20059;-71
2023/08/03 07:05:04;;;;;;;2.72;0.90;;;;;;;;;;5133532;27;20031;-71
2023/08/03 07:07:31;;;;;;;4.45;0.85;;;;;;;;;;5133146;27;20102;-71
2023/08/03 07:09:57;;;;;;;5.90;1.20;;;;;;;;;;5134352;27;20034;-70
2023/08/03 07:12:23;;;;;;;8.55;0.98;;;;;;;;;;5133282;27;20076;-70
2023/08/03 07:14:49;;;;;;;2.03;1.02;;;;;;;;;;5133971;27;20027;-71
2023/08/03 07:17:15;;;;;;;4.03;1.67;;;;;;;;;;5133267;27;20025;-70
2023/08/03 07:19:41;;;;;;;3.53;1.10;;;;;;;;;;5134045;27;20444;-70
2023/08/03 07:22:08;;;;;;;2.75;0.90;;;;;;;;;;5133813;27;20506;-70
2023/08/03 07:24:35;;;;;;;3.78;1.00;;;;;;;;;;5133101;27;20137;-70
2023/08/03 07:27:01;;;;;;;6.50;1.10;;;;;;;;;;5127277;27;20026;-70
2023/08/03 07:29:28;;;;;;;3.63;1.00;;;;;;;;;;5112531;28;20472;-70
2023/08/03 07:31:54;;;;;;;2.55;0.63;;;;;;;;;;5113197;28;20144;-70
2023/08/03 07:34:20;;;;;;;3.75;1.10;;;;;;;;;;5112658;28;20023;-70
2023/08/03 07:36:46;;;;;;;2.70;0.95;;;;;;;;;;5113016;28;20042;-70
2023/08/03 07:39:12;;;;;;;4.47;0.80;;;;;;;;;;5112749;28;20035;-70
2023/08/03 07:41:38;;;;;;;2.95;1.05;;;;;;;;;;5112517;28;20031;-70
2023/08/03 07:44:05;;;;;;;2.90;0.75;;;;;;;;;;5112998;28;20059;-70
2023/08/03 07:46:31;;;;;;;3.15;0.80;;;;;;;;;;5112392;28;20511;-70
2023/08/03 07:48:57;;;;;;;2.35;1.15;;;;;;;;;;5112825;28;20527;-70
2023/08/03 07:51:23;;;;;;;3.72;0.88;;;;;;;;;;5112143;28;20419;-70
2023/08/03 07:53:49;;;;;;;4.47;0.93;;;;;;;;;;5112777;28;20084;-71
2023/08/03 07:56:15;;;;;;;4.45;1.10;;;;;;;;;;5112131;28;20031;-70
2023/08/03 07:58:41;;;;;;;4.38;0.82;;;;;;;;;;5112796;28;20019;-71
2023/08/03 08:01:07;;;;;;;3.80;1.15;;;;;;;;;;5112725;28;20032;-71
2023/08/03 08:03:34;;;;;;;2.53;0.77;;;;;;;;;;5111681;28;20015;-70
2023/08/03 08:06:07;;;;;;;2.92;1.10;;;;;;;;;;5112657;28;20103;-71
2023/08/03 08:08:33;;;;;;;4.13;0.90;;;;;;;;;;5111759;28;20015;-71
2023/08/03 08:10:59;;;;;;;3.05;1.00;;;;;;;;;;5112614;28;20440;-71
2023/08/03 08:13:26;;;;;;;2.13;0.98;;;;;;;;;;5121502;28;20020;-71
2023/08/03 08:15:52;;;;;;;5.28;1.13;;;;;;;;;;5123787;28;20032;-71
2023/08/03 08:18:18;;;;;;;3.65;0.95;;;;;;;;;;5125002;28;20023;-71
2023/08/03 08:20:47;;;;;;;3.63;1.20;;;;;;;;;;5123876;28;20102;-70
2023/08/03 08:23:13;;;;;;;5.32;1.10;;;;;;;;;;5125095;28;20022;-71
2023/08/03 08:25:39;;;;;;;4.65;0.90;;;;;;;;;;5120960;28;20048;-72
2023/08/03 08:28:06;;;;;;;3.92;0.82;;;;;;;;;;5128966;28;20130;-71
2023/08/03 08:30:32;;;;;;;2.10;1.00;;;;;;;;;;5131998;28;20300;-71
2023/08/03 08:32:58;;;;;;;2.50;0.90;;;;;;;;;;5133128;28;20028;-72
2023/08/03 08:35:24;;;;;;;5.10;0.90;;;;;;;;;;5132191;28;20019;-72
2023/08/03 08:37:51;;;;;;;7.60;1.05;;;;;;;;;;5132704;28;20380;-72
2023/08/03 08:40:18;;;;;;;3.00;0.82;;;;;;;;;;5132098;28;20072;-71
2023/08/03 08:42:44;;;;;;;3.10;0.65;;;;;;;;;;5132581;28;20069;-71
2023/08/03 08:45:10;;;;;;;2.83;0.60;;;;;;;;;;5132592;28;20035;-71
2023/08/03 08:47:36;;;;;;;3.22;0.80;;;;;;;;;;5131938;28;20031;-71
2023/08/03 08:50:02;;;;;;;2.45;0.80;;;;;;;;;;5132744;28;20073;-71
2023/08/03 08:52:29;;;;;;;1.90;0.70;;;;;;;;;;5131878;28;20065;-71
2023/08/03 08:55:11;;;;;;;3.95;0.85;;;;;;;;;;5132325;28;20031;-71
2023/08/03 08:57:37;;;;;;;2.28;0.90;;;;;;;;;;5113591;28;20102;-71
2023/08/03 09:00:05;;;;;;;2.33;0.70;;;;;;;;;;5114629;28;20052;-72
2023/08/03 09:02:31;;;;;;;4.40;1.20;;;;;;;;;;5131668;28;20472;-71
2023/08/03 09:04:58;;;;;;;4.38;0.80;;;;;;;;;;5132465;28;20514;-71
2023/08/03 09:07:24;;;;;;;5.22;0.95;;;;;;;;;;5131822;28;20114;-72
2023/08/03 09:09:50;;;;;;;1.88;0.70;;;;;;;;;;5132916;28;20058;-71
2023/08/03 09:12:25;;;;;;;3.35;0.68;;;;;;;;;;5132425;28;20045;-71
2023/08/03 09:14:52;;;;;;;1.08;0.60;;;;;;;;;;5132528;28;20035;-71
2023/08/03 09:17:20;;;;;;;3.67;1.02;;;;;;;;;;5131953;28;20058;-71
2023/08/03 09:19:46;;;;;;;2.17;0.60;;;;;;;;;;5132604;28;20019;-71
2023/08/03 09:22:13;;;;;;;1.90;0.50;;;;;;;;;;5132650;28;20180;-71
2023/08/03 09:24:39;;;;;;;2.55;0.80;;;;;;;;;;5131080;28;20043;-71
2023/08/03 09:27:05;;;;;;;2.17;0.55;;;;;;;;;;5124891;28;20110;-71
2023/08/03 09:29:32;;;;;;;1.30;0.85;;;;;;;;;;5114770;28;20084;-71
2023/08/03 09:32:04;;;;;;;2.25;0.75;;;;;;;;;;5116136;28;20031;-71
2023/08/03 09:34:42;;;;;;;1.85;0.98;;;;;;;;;;5115149;28;20030;-71
2023/08/03 09:37:08;;;;;;;2.92;0.50;;;;;;;;;;5115486;28;20026;-71
2023/08/03 09:39:35;;;;;;;3.10;0.50;;;;;;;;;;5114413;28;20503;-71
2023/08/03 09:42:05;;;;;;;2.75;0.55;;;;;;;;;;5115048;28;20500;-71
2023/08/03 09:44:33;;;;;;;2.35;0.65;;;;;;;;;;5114566;28;20397;-72
2023/08/03 09:47:00;;;;;;;1.83;0.57;;;;;;;;;;5115561;28;20030;-71
2023/08/03 09:49:26;;;;;;;0.98;0.57;;;;;;;;;;5114460;28;20069;-71
2023/08/03 09:51:53;;;;;;;7.93;1.95;;;;;;;;;;5115276;28;20379;-71
2023/08/03 09:54:25;;;;;;;1.92;0.80;;;;;;;;;;5114864;28;20020;-71
2023/08/03 09:56:53;;;;;;;4.25;0.90;;;;;;;;;;5114841;28;20045;-72
2023/08/03 09:59:24;;;;;;;1.63;0.60;;;;;;;;;;5114854;28;20027;-71
2023/08/03 10:01:53;;;;;;;2.05;0.45;;;;;;;;;;5114992;28;20031;-71
2023/08/03 10:04:20;;;;;;;3.60;0.70;;;;;;;;;;5114754;28;20020;-71
2023/08/03 10:06:50;;;;;;;0.70;0.63;;;;;;;;;;5114454;28;20350;-72
2023/08/03 10:09:18;;;;;;;3.08;0.50;;;;;;;;;;5114537;28;20073;-71
2023/08/03 10:11:47;;;;;;;3.85;0.63;;;;;;;;;;5113929;28;20019;-71
2023/08/03 10:14:16;;;;;;;2.28;0.70;;;;;;;;;;5114548;28;20027;-71
2023/08/03 10:16:42;;;;;;;3.05;0.95;;;;;;;;;;5114060;28;20751;-72
2023/08/03 10:19:08;;;;;;;1.42;0.70;;;;;;;;;;5114847;28;20057;-72
2023/08/03 10:21:34;;;;;;;1.35;0.40;;;;;;;;;;5113619;28;20380;-71
2023/08/03 10:24:13;;;;;;;3.50;0.93;;;;;;;;;;5114776;28;20027;-72
2023/08/03 10:26:42;;;;;;;2.13;0.88;;;;;;;;;;5112991;28;20051;-71
2023/08/03 10:29:10;;;;;;;0.93;0.43;;;;;;;;;;5114666;28;20022;-72
2023/08/03 10:31:55;;;;;;;1.55;0.75;;;;;;;;;;5113597;28;20084;-71
2023/08/03 10:34:25;;;;;;;3.80;0.70;;;;;;;;;;5114303;28;20019;-71
2023/08/03 10:36:53;;;;;;;1.70;0.68;;;;;;;;;;5114175;28;20488;-72
2023/08/03 10:39:39;;;;;;;1.00;0.50;;;;;;;;;;5113141;28;20031;-71
2023/08/03 10:42:24;;;;;;;2.80;0.95;;;;;;;;;;5114251;28;20032;-71
2023/08/03 10:44:50;;;;;;;1.88;0.77;;;;;;;;;;5114625;28;20034;-72
2023/08/03 10:47:29;;;;;;;2.40;0.70;;;;;;;;;;5114055;28;20024;-72
2023/08/03 10:49:59;;;;;;;0.50;0.50;;;;;;;;;;5114242;28;20368;-72
2023/08/03 10:52:29;;;;;;;2.40;0.77;;;;;;;;;;5113332;28;20070;-71
2023/08/03 10:54:55;;;;;;;;;;;;;;;;;;5114404;28;20072;-71
2023/08/03 10:57:24;;;;;;;1.52;0.65;;;;;;;;;;5114057;28;20345;-72
2023/08/03 10:59:51;;;;;;;1.25;0.60;;;;;;;;;;5113473;28;20110;-71
2023/08/03 11:02:19;;;;;;;1.70;0.90;;;;;;;;;;5113741;28;20080;-71
2023/08/03 11:04:50;;;;;;;3.83;0.80;;;;;;;;;;5113026;28;20092;-71
2023/08/03 11:07:17;;;;;;;2.58;0.77;;;;;;;;;;5113830;28;20016;-71
2023/08/03 11:09:48;;;;;;;3.08;0.80;;;;;;;;;;5112822;28;20020;-72
2023/08/03 11:12:16;;;;;;;2.58;0.57;;;;;;;;;;5113486;28;20055;-72
2023/08/03 11:14:46;;;;;;;2.03;0.70;;;23.70;99.90;;;;;;5112743;28;20276;-72
2023/08/03 11:17:14;;;;;;;0.95;0.63;;;23.80;99.90;;;;;;5113711;28;20030;-73
2023/08/03 11:19:40;;;;;;;5.07;0.70;;;24.00;99.90;;;;;;5112710;28;20157;-71
2023/08/03 11:22:08;;;;;;;2.47;0.80;;;23.90;99.90;;;;;;5113434;28;20531;-71
2023/08/03 11:24:34;;;;;;;2.22;0.73;;;24.00;99.90;;;;;;5111900;28;20039;-71
2023/08/03 11:27:01;;;;;;;1.45;0.55;;;23.90;99.90;;;;;;5120432;27;20076;-71
2023/08/03 11:29:27;;;;;;;3.53;0.75;;;24.10;99.90;;;;;;5133180;27;20062;-71
2023/08/03 11:31:53;;;;;;;2.08;0.80;;;24.10;99.90;;;;;;5133836;27;20085;-72
2023/08/03 11:34:18;;;;;;;0.57;0.40;;;24.30;99.90;;;;;;5133737;27;20381;-72
2023/08/03 11:36:48;;;;;;;1.58;0.50;;;24.30;99.90;;;;;;5132788;27;20020;-73
2023/08/03 11:39:14;;;;;;;0.57;0.47;;;24.20;99.90;;;;;;5133888;27;20027;-71
2023/08/03 11:41:41;;;;;;;3.92;0.85;;;24.00;99.90;;;;;;5133069;27;20383;-71
2023/08/03 11:44:09;;;;;;;3.70;0.68;;;24.30;98.00;;;;;;5134121;27;20482;-72
2023/08/03 11:46:36;;;;;;;1.75;0.57;;;24.40;97.40;;;;;;5132929;27;20463;-72
2023/08/03 11:49:02;;;;;;;4.93;0.65;;;24.40;93.20;;;;;;5133912;27;20038;-72
2023/08/03 11:51:38;;;;;;;2.15;0.70;;;24.60;92.50;;;;;;5132325;27;20035;-71
2023/08/03 11:54:05;;;;;;;2.78;0.80;;;24.90;92.80;;;;;;5133668;27;20047;-71
2023/08/03 11:56:36;;;;;;;1.77;0.63;;;25.10;92.50;;;;;;5132796;27;20023;-71
2023/08/03 11:59:04;;;;;;;1.73;0.60;;;25.20;92.30;;;;;;5133685;27;20519;-72
2023/08/03 12:01:30;;;;;;;2.13;0.70;;;25.40;92.00;;;;;;5132426;27;20024;-71
2023/08/03 12:04:10;;;;;;;2.50;0.88;;;25.30;92.10;;;;;;5133047;27;20360;-71
2023/08/03 12:06:47;;;;;;;2.53;0.63;;;25.20;91.90;;;;;;5132472;27;20058;-71
2023/08/03 12:09:40;;;;;;;1.75;0.57;;;25.40;91.90;;;;;;5133297;27;20300;-72
2023/08/03 12:12:08;;;;;;;1.65;0.70;;;25.90;91.60;;;;;;5130016;27;20039;-72
2023/08/03 12:14:33;;;;;;;3.53;0.80;;;26.10;91.30;;;;;;5132275;27;20026;-71
2023/08/03 12:16:59;;;;;;;2.33;0.63;;;26.10;91.10;;;;;;5133397;27;20019;-72
2023/08/03 12:19:33;;;;;;;3.25;0.68;;;25.80;91.20;;;;;;5119939;27;20024;-72
2023/08/03 12:22:05;;;;;;;1.80;0.60;;;26.00;91.20;;;;;;5112816;28;20519;-71
2023/08/03 12:24:31;;;;;;;2.28;0.55;;;26.20;90.30;;;;;;5111583;28;20035;-71
2023/08/03 12:26:56;;;;;;;1.55;1.00;;;26.40;90.30;;;;;;5091821;28;20122;-71
2023/08/03 12:29:23;;;;;;;0.70;0.47;;;26.60;90.10;;;;;;5073902;28;20031;-71
2023/08/03 12:31:48;;;;;;;3.28;0.80;;;26.70;90.10;;;;;;5091377;28;20048;-71
2023/08/03 12:34:14;;;;;;;2.10;0.60;;;27.00;90.00;;;;;;5092012;28;20052;-72
2023/08/03 12:36:40;;;;;;;1.80;0.65;;;26.80;88.20;;;;;;5091176;28;20016;-72
2023/08/03 12:39:05;;;;;;;2.15;0.68;;;26.40;89.10;;;;;;5091990;28;20031;-72
2023/08/03 12:41:31;;;;;;;1.83;0.70;;;26.20;89.10;;;;;;5091188;28;20032;-72
2023/08/03 12:43:57;;;;;;;0.63;0.50;;;26.20;89.00;;;;;;5091837;28;20052;-72
2023/08/03 12:46:22;;;;;;;1.60;1.02;;;26.20;89.60;;;;;;5091963;28;20109;-72
2023/08/03 12:48:50;;;;;;;0.82;0.50;;;26.40;88.90;;;;;;5090975;28;20024;-72
2023/08/03 12:51:18;;;;;;;2.28;0.90;;;26.50;88.30;;;;;;5091625;28;20527;-72
2023/08/03 12:53:46;;;;;;;1.13;0.55;;;26.30;88.50;;;;;;5090967;28;20031;-71
2023/08/03 12:56:12;;;;;;;1.45;0.57;;;26.20;88.70;;;;;;5091662;28;20032;-72
2023/08/03 12:58:41;;;;;;;1.88;0.85;;;26.30;88.70;;;;;;5090926;28;20020;-72
2023/08/03 13:01:07;;;;;;;2.13;0.68;;;26.30;89.50;;;;;;5092119;28;20024;-72
2023/08/03 13:03:33;;;;;;;1.85;0.70;;;26.50;89.40;;;;;;5093062;28;20461;-71
2023/08/03 13:05:59;;;;;;;1.70;0.95;;;26.70;89.50;;;;;;5095837;28;20024;-71
2023/08/03 13:08:24;;;;;;;4.43;0.77;;;27.00;88.40;;;;;;5095453;28;20032;-72
2023/08/03 13:10:50;;;;;;;1.25;0.93;;;26.80;88.20;;;;;;5094808;28;20020;-72
2023/08/03 13:13:22;;;;;;;3.53;0.60;;;26.50;88.50;;;;;;5095686;28;20115;-73
2023/08/03 13:15:48;;;;;;;1.65;0.80;;;26.20;89.30;;;;;;5094929;28;20024;-72
2023/08/03 13:18:15;;;;;;;1.77;0.80;;;26.30;88.60;;;;;;5095461;28;20027;-72
2023/08/03 13:20:43;;;;;;;2.85;0.90;;;26.10;89.20;;;;;;5094873;28;20056;-72
2023/08/03 13:23:09;;;;;;;2.95;0.75;;;26.00;89.70;;;;;;5095370;28;20377;-72
2023/08/03 13:25:35;;;;;;;1.30;0.70;;;25.90;90.00;;;;;;5093821;28;20048;-72
2023/08/03 13:28:03;;;;;;;3.05;0.65;;;26.20;90.20;;;;;;5110901;28;20034;-72
2023/08/03 13:30:32;;;;;;;2.33;0.63;;;26.70;89.40;;;;;;5115810;28;20119;-72
2023/08/03 13:32:57;;;;;;;3.75;0.80;;;26.90;89.00;;;;;;5115332;28;20027;-72
2023/08/03 13:35:23;;;;;;;1.90;0.50;;;27.00;88.10;;;;;;5115648;28;20164;-72
2023/08/03 13:37:49;;;;;;;1.70;0.90;;;27.10;87.40;;;;;;5114797;28;20035;-72
2023/08/03 13:40:15;;;;;;;1.13;0.70;;;27.30;87.20;;;;;;5115573;28;20020;-72
2023/08/03 13:42:41;;;;;;;1.23;0.60;;;27.40;86.80;;;;;;5114654;28;20349;-72
2023/08/03 13:45:07;;;;;;;1.48;0.50;;;27.70;86.50;;;;;;5115178;28;20068;-72
2023/08/03 13:47:33;;;;;;;4.07;0.88;;;27.90;86.00;;;;;;5115041;28;20443;-72
2023/08/03 13:49:58;;;;;;;3.78;0.70;;;28.00;85.80;;;;;;5114608;28;20024;-72
2023/08/03 13:52:24;;;;;;;1.27;0.60;;;28.20;85.60;;;;;;5115232;28;20457;-72
2023/08/03 13:54:50;;;;;;;1.58;0.70;;;28.50;84.20;;;;;;5114609;28;20050;-72
2023/08/03 13:57:16;;;;;;;1.73;0.77;;;28.80;83.90;;;;;;5114943;28;20038;-71
2023/08/03 13:59:42;;;;;;;0.80;0.50;;;28.70;83.90;;;;;;5114288;28;20027;-70
2023/08/03 14:02:09;;;;;;;1.45;0.80;;;28.60;84.00;;;;;;5114801;28;20039;-72
2023/08/03 14:04:34;;;;;;;2.33;0.52;;;28.70;84.20;;;;;;5114548;28;20019;-72
2023/08/03 14:07:00;;;;;;;1.48;0.60;;;28.70;83.60;;;;;;5114654;28;20028;-72
2023/08/03 14:09:26;;;;;;;0.90;0.60;;;28.60;84.00;;;;;;5114781;28;20368;-71
2023/08/03 14:11:52;;;;;;;1.35;0.55;;;28.70;83.30;;;;;;5113967;28;20031;-72